Time;durP1;ratioP1;P1;durP2;ratioP2;P2;SDS_P1;SDS_P2;PMS_P1;PMS_P2;Temp;Humidity;BMP_temperature;BMP_pressure;BME280_temperature;BME280_humidity;BME280_pressure;Samples;Min_cycle;Max_cycle;Signal;HPM_P1;HPM_P2
2022/09/17 00:00:11;;;;;;;16.73;7.90;;;;;;;40.85;33.37;101134.34;6153798;23;20731;-76
2022/09/17 00:02:37;;;;;;;14.47;8.03;;;;;;;40.71;34.14;101129.06;6154311;23;20381;-76
2022/09/17 00:05:03;;;;;;;17.20;9.43;;;;;;;40.62;34.14;101120.88;6154435;23;20887;-73
2022/09/17 00:07:29;;;;;;;14.33;7.77;;;;;;;40.15;34.84;101117.91;6154590;23;20450;-73
2022/09/17 00:09:55;;;;;;;19.97;6.87;;;;;;;40.65;34.46;101124.91;6154351;23;20846;-72
2022/09/17 00:12:22;;;;;;;17.43;7.67;;;;;;;40.66;34.07;101110.19;6154664;23;20448;-73
2022/09/17 00:14:48;;;;;;;17.93;8.53;;;;;;;40.37;34.68;101113.47;6156241;23;20365;-73
2022/09/17 00:17:14;;;;;;;28.70;10.03;;;;;;;40.25;34.77;101104.00;6154286;23;20806;-73
2022/09/17 00:19:40;;;;;;;16.13;8.20;;;;;;;40.19;34.72;101101.75;6156213;23;20391;-73
2022/09/17 00:22:06;;;;;;;26.73;9.60;;;;;;;39.87;35.51;101108.34;6156308;23;20380;-72
2022/09/17 00:24:32;;;;;;;14.33;7.53;;;;;;;39.89;35.92;101108.81;6154427;23;20404;-73
2022/09/17 00:26:59;;;;;;;26.43;9.00;;;;;;;40.47;34.41;101107.72;6154448;23;20405;-72
2022/09/17 00:29:25;;;;;;;27.77;10.30;;;;;;;40.48;34.56;101101.19;6154229;23;20385;-72
2022/09/17 00:31:51;;;;;;;19.63;11.63;;;;;;;40.26;34.63;101094.72;6154265;23;20385;-72
2022/09/17 00:34:17;;;;;;;12.20;7.33;;;;;;;40.35;34.63;101091.25;6154217;23;20492;-72
2022/09/17 00:36:43;;;;;;;20.57;9.73;;;;;;;40.18;34.93;101083.84;6154458;23;20416;-73
2022/09/17 00:39:11;;;;;;;18.50;8.33;;;;;;;40.70;34.22;101087.47;6153751;23;20475;-73
2022/09/17 00:41:37;;;;;;;16.67;7.57;;;;;;;40.68;34.62;101089.69;6153842;23;20437;-73
2022/09/17 00:44:40;;;;;;;19.53;7.80;;;;;;;40.55;34.70;101087.94;6154212;23;20382;-73
2022/09/17 00:47:37;;;;;;;24.27;9.27;;;;;;;40.54;34.36;101087.13;6156139;23;20348;-73
2022/09/17 00:50:22;;;;;;;28.53;7.70;;;;;;;40.45;35.07;101080.03;6131589;23;20378;-72
2022/09/17 00:53:12;;;;;;;25.63;10.30;;;;;;;40.13;35.89;101082.06;6153848;23;20387;-73
2022/09/17 00:55:50;;;;;;;21.00;8.80;;;;;;;40.64;34.91;101080.59;6153871;23;20690;-73
2022/09/17 00:58:20;;;;;;;24.73;9.50;;;;;;;40.45;34.92;101080.84;6153908;23;20797;-73
2022/09/17 01:00:46;;;;;;;22.53;9.03;;;;;;;40.62;34.29;101077.38;6129845;23;20455;-74
2022/09/17 01:03:13;;;;;;;15.57;8.83;;;;;;;40.47;35.20;101080.53;6153954;23;20770;-73
2022/09/17 01:06:11;;;;;;;27.97;11.43;;;;;;;40.88;34.22;101077.34;6153850;23;20452;-73
2022/09/17 01:09:02;;;;;;;18.20;7.50;;;;;;;40.64;34.25;101083.31;6131435;23;20395;-74
2022/09/17 01:11:48;;;;;;;25.87;8.10;;;;;;;40.97;34.44;101080.91;6153957;23;20460;-73
2022/09/17 01:14:41;;;;;;;19.00;8.53;;;;;;;41.04;34.16;101083.13;6129335;23;20419;-73
2022/09/17 01:17:25;;;;;;;19.40;7.93;;;;;;;40.91;34.36;101087.63;6153757;23;20377;-74
2022/09/17 01:20:38;;;;;;;29.33;10.80;;;;;;;40.80;34.67;101078.16;6153785;23;20377;-73
2022/09/17 01:23:41;;;;;;;21.10;10.70;;;;;;;40.92;34.34;101081.06;6153694;23;20773;-73
2022/09/17 01:26:13;;;;;;;16.20;8.30;;;;;;;40.36;34.76;101085.47;6155427;23;20385;-75
2022/09/17 01:29:15;;;;;;;22.13;8.40;;;;;;;40.58;34.82;101079.16;6153824;23;20873;-75
2022/09/17 01:31:53;;;;;;;17.47;8.53;;;;;;;40.72;34.37;101079.78;6153659;23;20458;-75
2022/09/17 01:34:58;;;;;;;20.53;9.33;;;;;;;40.81;34.24;101077.84;6155542;23;20360;-75
2022/09/17 01:37:38;;;;;;;13.30;7.23;;;;;;;40.57;34.19;101082.16;6153626;23;20436;-75
2022/09/17 01:40:12;;;;;;;22.30;11.33;;;;;;;40.67;34.52;101084.56;6153375;23;20444;-76
2022/09/17 01:42:58;;;;;;;23.87;8.60;;;;;;;40.85;34.08;101077.22;6153488;23;20846;-74
2022/09/17 01:45:29;;;;;;;18.53;9.97;;;;;;;40.44;34.22;101068.38;6155480;23;20870;-74
2022/09/17 01:48:17;;;;;;;20.70;9.17;;;;;;;40.65;34.40;101063.16;6153559;23;20389;-74
2022/09/17 01:51:09;;;;;;;24.37;10.47;;;;;;;40.58;34.64;101065.56;6155385;23;20381;-73
2022/09/17 01:54:16;;;;;;;24.77;10.60;;;;;;;40.22;34.69;101068.53;6153492;23;20409;-73
2022/09/17 01:56:51;;;;;;;20.43;10.00;;;;;;;40.43;34.67;101071.41;6153385;23;20713;-73
2022/09/17 01:59:23;;;;;;;26.03;9.90;;;;;;;40.44;34.47;101070.28;6153556;23;20737;-73
2022/09/17 02:01:55;;;;;;;16.20;10.60;;;;;;;40.42;34.60;101084.22;6153878;23;20889;-74
2022/09/17 02:04:33;;;;;;;16.60;8.77;;;;;;;40.38;34.53;101075.09;6153378;23;20385;-73
2022/09/17 02:07:07;;;;;;;20.20;10.80;;;;;;;40.66;33.98;101069.38;6153406;23;20388;-75
2022/09/17 02:09:40;;;;;;;16.33;9.30;;;;;;;40.50;33.63;101074.47;6153512;23;20860;-75
2022/09/17 02:12:12;;;;;;;25.20;8.47;;;;;;;40.38;34.16;101069.66;6153421;23;20377;-74
2022/09/17 02:15:07;;;;;;;23.67;9.40;;;;;;;40.36;34.02;101080.03;6153434;23;20469;-74
2022/09/17 02:17:39;;;;;;;36.73;9.20;;;;;;;40.25;34.65;101070.59;6150826;23;20853;-74
2022/09/17 02:20:06;;;;;;;28.53;9.77;;;;;;;40.12;34.79;101072.31;6153064;23;20421;-74
2022/09/17 02:22:50;;;;;;;26.60;11.03;;;;;;;40.35;34.78;101083.88;6153462;23;20786;-73
2022/09/17 02:25:37;;;;;;;22.83;12.30;;;;;;;40.42;34.10;101069.81;6128906;23;20384;-73
2022/09/17 02:28:25;;;;;;;24.13;10.13;;;;;;;40.48;34.02;101071.28;6153256;23;20408;-75
2022/09/17 02:30:51;;;;;;;21.73;11.00;;;;;;;40.63;33.91;101073.53;6153334;23;20381;-75
2022/09/17 02:33:19;;;;;;;19.70;9.23;;;;;;;40.82;34.01;101067.75;6153399;23;20389;-75
2022/09/17 02:35:46;;;;;;;24.33;10.27;;;;;;;40.72;34.01;101073.53;6153364;23;20409;-75
2022/09/17 02:38:12;;;;;;;25.73;11.10;;;;;;;40.69;34.48;101080.41;6153408;23;20476;-75
2022/09/17 02:40:48;;;;;;;21.47;10.23;;;;;;;40.60;33.84;101078.81;6131030;23;20434;-74
2022/09/17 02:43:42;;;;;;;17.47;9.00;;;;;;;40.84;33.94;101079.13;6099411;23;20878;-74
2022/09/17 02:46:33;;;;;;;12.70;6.93;;;;;;;40.72;33.97;101071.63;6099427;23;20839;-74
2022/09/17 02:49:37;;;;;;;18.90;8.07;;;;;;;40.39;34.21;101082.16;6078049;23;20409;-73
2022/09/17 02:52:14;;;;;;;16.80;8.53;;;;;;;40.67;33.37;101076.41;6089403;23;20371;-74
2022/09/17 02:55:01;;;;;;;26.40;9.30;;;;;;;40.77;33.85;101086.97;6125726;23;20358;-73
2022/09/17 02:58:06;;;;;;;17.20;8.83;;;;;;;40.82;33.61;101086.78;6099470;23;20772;-73
2022/09/17 03:00:34;;;;;;;20.00;12.07;;;;;;;40.61;33.66;101075.78;6107860;23;20433;-74
2022/09/17 07:10:42;;;;;;;19.65;14.52;;;;;;;40.19;35.56;101271.03;6059384;22;2056084;-73
2022/09/17 07:13:08;;;;;;;18.63;15.07;;;;;;;40.21;35.27;101273.47;6153239;23;20165;-73
2022/09/17 07:15:34;;;;;;;20.13;13.90;;;;;;;39.69;36.09;101275.81;6152602;23;20380;-73
2022/09/17 07:18:07;;;;;;;20.37;14.57;;;;;;;40.39;34.98;101277.88;6153185;23;20511;-73
2022/09/17 07:20:33;;;;;;;20.20;13.27;;;;;;;40.58;34.66;101279.53;6153188;23;20377;-73
2022/09/17 07:22:59;;;;;;;25.23;16.43;;;;;;;40.35;35.05;101282.31;6153165;23;20440;-71
2022/09/17 07:25:25;;;;;;;19.97;15.67;;;;;;;39.59;36.60;101284.97;6153451;23;20157;-72
2022/09/17 07:27:52;;;;;;;27.17;15.43;;;;;;;40.29;35.31;101287.09;6152887;23;20729;-72
2022/09/17 07:30:19;;;;;;;20.27;13.10;;;;;;;40.40;34.91;101289.53;6152113;23;20924;-71
2022/09/17 07:32:45;;;;;;;17.67;12.10;;;;;;;39.92;35.46;101280.16;6151895;23;20377;-72
2022/09/17 07:35:11;;;;;;;26.60;12.93;;;;;;;39.61;36.08;101282.00;6153431;23;20535;-71
2022/09/17 07:37:37;;;;;;;24.57;13.60;;;;;;;38.90;37.52;101285.13;6151945;23;20727;-72
2022/09/17 07:40:07;;;;;;;21.50;13.60;;;;;;;40.14;35.91;101287.47;6151707;23;20401;-73
2022/09/17 07:42:33;;;;;;;18.47;12.37;;;;;;;40.66;34.39;101303.25;6151935;23;20380;-73
2022/09/17 07:44:59;;;;;;;17.00;12.60;;;;;;;39.69;36.27;101308.41;6151139;23;20415;-72
2022/09/17 07:47:25;;;;;;;23.60;12.47;;;;;;;40.08;35.87;101310.47;6151711;23;20467;-74
2022/09/17 07:49:51;;;;;;;16.33;12.53;;;;;;;40.85;34.57;101308.44;6153496;23;20165;-73
2022/09/17 07:52:17;;;;;;;20.90;14.27;;;;;;;40.89;34.54;101307.50;6149375;23;20420;-74
2022/09/17 07:54:43;;;;;;;16.23;11.40;;;;;;;40.84;34.27;101309.56;6153538;23;20437;-72
2022/09/17 07:57:09;;;;;;;22.17;12.33;;;;;;;41.21;33.32;101305.50;6151663;23;20165;-73
2022/09/17 07:59:35;;;;;;;22.53;11.93;;;;;;;40.88;34.32;101305.06;6151502;23;20185;-80
2022/09/17 08:02:01;;;;;;;43.17;28.50;;;;;;;41.28;33.43;101300.38;6151683;23;20150;-75
2022/09/17 08:04:27;;;;;;;27.83;16.10;;;;;;;41.48;33.87;101307.13;6151392;23;20412;-76
2022/09/17 08:06:53;;;;;;;139.90;70.60;;;;;;;41.10;33.85;101304.19;6151675;23;20161;-78
2022/09/17 08:09:18;;;;;;;98.00;61.97;;;;;;;41.24;32.97;101302.94;6151848;23;20200;-78
2022/09/17 08:11:44;;;;;;;40.40;23.70;;;;;;;41.02;33.50;101297.63;6155877;23;20283;-79
2022/09/17 08:14:12;;;;;;;35.47;21.67;;;;;;;41.39;33.08;101303.63;6156621;23;20227;-79
2022/09/17 08:16:38;;;;;;;30.33;14.00;;;;;;;41.37;33.29;101305.84;6157778;23;20384;-79
2022/09/17 08:19:04;;;;;;;28.63;13.53;;;;;;;41.21;33.58;101297.34;6158761;23;20490;-79
2022/09/17 08:21:31;;;;;;;25.03;13.17;;;;;;;40.94;33.75;101312.00;6186068;23;20360;-78
2022/09/17 08:23:57;;;;;;;35.47;16.67;;;;;;;40.84;33.72;101306.84;6159077;23;20376;-78
2022/09/17 08:26:25;;;;;;;34.20;16.43;;;;;;;41.36;33.18;101306.97;6159525;23;20383;-80
2022/09/17 08:28:55;;;;;;;35.40;17.67;;;;;;;41.14;33.62;101310.63;6186096;23;20353;-77
2022/09/17 08:31:29;;;;;;;29.60;20.70;;;;;;;41.18;33.41;101312.38;6157828;23;20802;-75
2022/09/17 08:33:56;;;;;;;18.50;11.17;;;;;;;41.70;32.93;101312.44;6159861;23;20372;-83
2022/09/17 08:36:24;;;;;;;23.93;13.50;;;;;;;41.85;32.41;101308.41;6157621;23;20462;-82
2022/09/17 08:38:57;;;;;;;27.33;12.47;;;;;;;41.86;32.69;101316.25;6159692;23;20790;-81
2022/09/17 08:41:50;;;;;;;43.50;23.50;;;;;;;41.34;33.27;101312.75;6160993;23;20364;-80
2022/09/17 08:44:49;;;;;;;25.53;14.13;;;;;;;41.47;33.30;101324.59;6159647;23;20387;-80
2022/09/17 08:47:35;;;;;;;59.83;27.57;;;;;;;41.69;32.58;101318.19;6159524;23;20491;-80
2022/09/17 08:50:14;;;;;;;25.07;11.90;;;;;;;41.49;33.12;101306.00;6159994;23;20392;-82
2022/09/17 08:52:56;;;;;;;33.07;16.20;;;;;;;41.50;32.89;101308.44;6150549;23;20411;-83
2022/09/17 08:55:46;;;;;;;30.80;14.27;;;;;;;41.96;32.54;101319.78;6157592;23;20383;-81
2022/09/17 08:59:02;;;;;;;25.30;13.97;;;;;;;41.09;32.84;101317.00;6157479;23;20384;-82
2022/09/17 09:01:35;;;;;;;25.67;13.80;;;;;;;41.34;32.81;101329.88;6149645;23;20452;-81
2022/09/17 09:04:28;;;;;;;21.00;10.70;;;;;;;41.00;33.86;101332.50;6157236;23;20412;-80
2022/09/17 09:07:01;;;;;;;18.70;10.50;;;;;;;41.00;33.47;101337.94;6099782;23;20841;-81
2022/09/17 09:09:35;;;;;;;19.77;9.37;;;;;;;40.76;33.86;101324.72;6159351;23;20475;-80
2022/09/17 09:12:06;;;;;;;11.73;7.83;;;;;;;40.17;34.67;101327.63;6159192;23;20906;-80
2022/09/17 09:14:49;;;;;;;19.70;9.73;;;;;;;41.08;33.67;101324.38;6159048;23;20385;-80
2022/09/17 09:17:18;;;;;;;34.23;19.60;;;;;;;41.33;33.36;101322.03;6159668;23;20442;-80
2022/09/17 09:19:48;;;;;;;29.50;19.43;;;;;;;41.80;32.26;101328.44;6159522;23;20904;-80
2022/09/17 09:22:50;;;;;;;18.60;11.87;;;;;;;41.98;32.07;101333.88;6184174;23;20407;-81
2022/09/17 09:25:30;;;;;;;35.10;14.10;;;;;;;41.78;32.46;101308.09;6159853;23;20376;-82
2022/09/17 09:28:14;;;;;;;22.53;12.50;;;;;;;41.77;32.38;101329.09;6159692;23;20842;-81
2022/09/17 09:31:09;;;;;;;26.10;14.50;;;;;;;41.44;33.06;101341.59;6159835;23;20384;-81
2022/09/17 09:33:48;;;;;;;28.87;12.50;;;;;;;41.69;32.55;101342.72;6185220;23;20381;-81
2022/09/17 09:36:20;;;;;;;25.43;15.13;;;;;;;41.53;32.81;101343.19;6182955;23;20384;-82
2022/09/17 09:39:09;;;;;;;23.73;11.70;;;;;;;41.84;32.49;101334.06;6159389;23;20377;-82
2022/09/17 09:41:46;;;;;;;14.70;9.37;;;;;;;41.65;32.65;101341.75;6135400;23;20396;-82
2022/09/17 09:44:15;;;;;;;21.77;10.30;;;;;;;42.16;31.90;101342.81;6159820;23;20466;-80
2022/09/17 09:47:11;;;;;;;29.57;10.83;;;;;;;42.18;32.22;101341.41;6159602;23;20384;-82
2022/09/17 09:49:59;;;;;;;19.43;10.43;;;;;;;42.06;32.41;101343.97;6159676;23;20405;-82
2022/09/17 09:52:52;;;;;;;21.93;8.97;;;;;;;41.78;32.89;101338.88;6159390;23;20383;-82
2022/09/17 09:55:35;;;;;;;20.00;10.67;;;;;;;42.08;32.26;101331.63;6159771;23;20391;-82
2022/09/17 09:58:15;;;;;;;17.27;10.47;;;;;;;42.11;32.34;101333.72;6159578;23;20459;-82
2022/09/17 10:00:44;;;;;;;15.60;8.70;;;;;;;42.06;32.08;101319.44;6158939;23;20547;-81
2022/09/17 10:03:25;;;;;;;14.73;8.37;;;;;;;41.49;32.66;101335.97;6159323;23;20384;-81
2022/09/17 10:06:04;;;;;;;11.80;6.73;;;;;;;42.10;32.07;101334.81;6159240;23;20380;-81
2022/09/17 10:09:00;;;;;;;19.60;7.07;;;;;;;42.07;31.74;101337.41;6159407;23;20408;-81
2022/09/17 10:11:34;;;;;;;24.63;8.63;;;;;;;42.19;31.92;101329.38;6148349;23;20486;-81
2022/09/17 10:14:18;;;;;;;13.07;9.17;;;;;;;41.96;31.80;101338.88;6159134;23;20408;-81
2022/09/17 10:16:44;;;;;;;12.27;7.43;;;;;;;41.67;32.54;101323.94;6159260;23;20841;-82
2022/09/17 10:19:24;;;;;;;17.50;7.20;;;;;;;41.92;32.09;101324.28;6158787;23;20432;-79
2022/09/17 10:21:51;;;;;;;19.17;7.07;;;;;;;42.20;31.43;101320.06;6152866;23;20157;-80
2022/09/17 10:24:33;;;;;;;14.77;6.23;;;;;;;41.67;32.27;101314.97;6159285;23;20388;-79
2022/09/17 10:27:20;;;;;;;28.73;10.07;;;;;;;42.11;32.25;101313.81;6184119;23;20412;-80
2022/09/17 10:30:11;;;;;;;11.70;7.47;;;;;;;41.80;32.29;101311.31;6181929;23;20415;-81
2022/09/17 10:32:43;;;;;;;13.27;8.20;;;;;;;42.38;31.59;101316.16;6184016;23;20408;-82
2022/09/17 10:35:15;;;;;;;14.10;8.20;;;;;;;42.48;31.25;101316.91;6158576;23;20503;-80
2022/09/17 10:37:45;;;;;;;19.63;9.00;;;;;;;42.60;31.30;101309.69;6158702;23;20782;-80
2022/09/17 10:40:17;;;;;;;18.00;8.57;;;;;;;42.68;31.10;101310.78;6158417;23;20494;-80
2022/09/17 10:42:44;;;;;;;14.90;7.83;;;;;;;42.67;30.94;101303.72;6185615;23;20663;-79
2022/09/17 10:45:31;;;;;;;18.10;8.20;;;;;;;41.88;31.88;101302.34;6159038;23;20388;-79
2022/09/17 10:47:59;;;;;;;12.53;7.70;;;;;;;42.02;32.23;101296.69;6158695;23;20396;-79
2022/09/17 10:50:30;;;;;;;17.03;7.60;;;;;;;42.27;31.64;101297.75;6157971;23;20379;-77
2022/09/17 10:53:00;;;;;;;9.40;6.40;;;;;;;41.82;31.84;101290.81;6158034;23;20862;-79
2022/09/17 10:55:58;;;;;;;11.53;7.27;;;;;;;41.80;32.20;101298.47;6158302;23;20388;-78
2022/09/17 10:58:42;;;;;;;19.43;9.90;;;;;;;41.97;32.08;101291.41;6184408;23;20369;-80
2022/09/17 11:01:17;;;;;;;16.30;7.50;;;;;;;42.59;31.32;101288.19;6158581;23;20512;-79
2022/09/17 11:04:45;;;;;;;12.50;6.37;;;;;;;42.32;31.19;101283.94;6157722;23;20486;-79
2022/09/17 11:07:23;;;;;;;17.83;11.03;;;;;;;42.57;31.20;101285.78;6025403;23;20388;-81
2022/09/17 11:09:57;;;;;;;17.20;7.87;;;;;;;42.31;31.49;101280.44;6040588;23;20415;-80
2022/09/17 11:12:40;;;;;;;14.53;7.30;;;;;;;42.17;31.67;101279.03;6131308;23;20387;-79
2022/09/17 11:15:36;;;;;;;17.83;7.70;;;;;;;42.25;31.76;101270.84;6158348;23;20386;-80
2022/09/17 11:18:29;;;;;;;11.67;7.93;;;;;;;42.84;31.03;101267.34;6158489;23;20766;-80
2022/09/17 11:21:26;;;;;;;13.70;7.37;;;;;;;42.70;30.83;101272.25;6157950;23;20427;-80
2022/09/17 11:24:11;;;;;;;18.83;6.00;;;;;;;42.19;31.01;101263.97;6158416;23;20381;-79
2022/09/17 11:27:13;;;;;;;10.33;6.37;;;;;;;42.32;30.97;101260.22;6158146;23;20380;-78
2022/09/17 11:30:18;;;;;;;12.50;7.30;;;;;;;42.27;31.47;101257.66;6184401;23;20402;-79
2022/09/17 11:33:10;;;;;;;25.13;8.63;;;;;;;42.28;31.63;101253.81;6086347;23;20468;-80
2022/09/17 11:35:51;;;;;;;16.07;8.07;;;;;;;42.31;31.23;101263.28;6157465;23;20499;-79
2022/09/17 11:38:33;;;;;;;24.97;8.10;;;;;;;42.03;31.34;101244.56;6183845;23;20378;-76
2022/09/17 11:41:06;;;;;;;15.17;7.67;;;;;;;41.99;31.63;101243.66;6157825;23;20427;-76
2022/09/17 11:43:35;;;;;;;18.20;8.33;;;;;;;42.00;32.10;101242.50;6157370;23;20407;-77
2022/09/17 11:46:11;;;;;;;20.97;8.60;;;;;;;42.19;31.47;101228.53;6158172;23;20412;-76
2022/09/17 11:48:45;;;;;;;25.10;10.00;;;;;;;42.22;31.64;101225.13;6157947;23;20844;-74
2022/09/17 11:51:31;;;;;;;21.00;10.03;;;;;;;42.30;31.47;101234.41;6158978;23;20383;-74
2022/09/17 11:54:16;;;;;;;17.03;8.80;;;;;;;42.49;31.56;101220.34;6160093;23;20863;-75
2022/09/17 11:56:50;;;;;;;30.47;12.03;;;;;;;42.56;31.11;101215.97;6186751;23;20721;-75
2022/09/17 11:59:36;;;;;;;16.13;7.93;;;;;;;42.40;31.60;101214.94;6159025;23;20432;-83
2022/09/17 12:02:21;;;;;;;18.97;9.90;;;;;;;42.42;31.14;101199.06;6159875;23;20757;-75
2022/09/17 12:05:14;;;;;;;15.80;7.23;;;;;;;42.60;30.87;101191.56;6159939;23;20376;-76
2022/09/17 12:08:03;;;;;;;11.77;7.47;;;;;;;42.54;30.93;101182.78;6159874;23;20408;-78
2022/09/17 12:10:29;;;;;;;18.63;7.60;;;;;;;41.99;31.93;101178.25;6159586;23;20514;-77
2022/09/17 12:13:03;;;;;;;22.63;9.10;;;;;;;42.79;30.88;101177.50;6159557;23;20893;-75
2022/09/17 12:15:37;;;;;;;16.77;6.10;;;;;;;42.63;30.86;101169.91;6159204;23;20213;-78
2022/09/17 12:18:30;;;;;;;18.63;8.23;;;;;;;42.43;30.88;101161.69;6159043;23;20736;-72
2022/09/17 12:21:00;;;;;;;19.17;10.90;;;;;;;42.84;30.26;101158.97;6159015;23;20435;-75
2022/09/17 12:23:39;;;;;;;19.73;8.20;;;;;;;42.93;30.38;101145.28;6186296;23;20884;-72
2022/09/17 12:26:14;;;;;;;24.43;10.63;;;;;;;42.98;30.36;101141.53;6159280;23;20384;-70
2022/09/17 12:29:07;;;;;;;26.47;8.50;;;;;;;43.04;30.58;101135.56;6159280;23;20374;-71
2022/09/17 12:31:33;;;;;;;20.73;7.63;;;;;;;42.79;30.59;101133.84;6159244;23;20372;-70
2022/09/17 12:34:19;;;;;;;15.03;8.10;;;;;;;42.70;30.90;101125.72;6159461;23;20377;-72
2022/09/17 12:37:16;;;;;;;18.33;8.20;;;;;;;42.77;30.88;101125.19;6159481;23;20510;-77
2022/09/17 12:40:04;;;;;;;16.00;7.73;;;;;;;42.73;31.11;101121.53;6159615;23;20419;-72
2022/09/17 12:42:39;;;;;;;16.10;7.20;;;;;;;42.94;30.68;101119.56;6159453;23;20812;-72
2022/09/17 12:45:16;;;;;;;14.13;7.20;;;;;;;43.34;29.90;101108.94;6159622;23;20426;-72
2022/09/17 12:48:16;;;;;;;12.53;6.73;;;;;;;42.39;30.84;101107.78;6186332;23;20356;-73
2022/09/17 12:51:00;;;;;;;11.67;6.87;;;;;;;42.70;30.50;101105.81;6159219;23;20756;-72
2022/09/17 12:54:07;;;;;;;15.83;6.80;;;;;;;42.43;31.33;101088.06;6159141;23;20418;-76
2022/09/17 12:56:52;;;;;;;25.47;9.60;;;;;;;42.52;30.95;101075.94;6142747;23;20399;-73
2022/09/17 12:59:19;;;;;;;17.17;7.00;;;;;;;42.72;30.52;101082.53;6158810;23;20412;-73
2022/09/17 13:02:01;;;;;;;16.03;6.40;;;;;;;42.93;30.40;101080.56;6159074;23;20383;-71
2022/09/17 13:04:45;;;;;;;14.43;8.30;;;;;;;43.12;30.21;101071.09;6158534;23;20404;-73
2022/09/17 13:07:36;;;;;;;13.37;6.43;;;;;;;43.06;30.14;101061.53;6159101;23;20463;-72
2022/09/17 13:10:11;;;;;;;11.43;7.33;;;;;;;43.09;29.92;101055.38;6114164;23;20443;-73
2022/09/17 13:12:50;;;;;;;17.40;6.90;;;;;;;43.07;30.07;101044.81;6185707;23;20418;-73
2022/09/17 13:15:48;;;;;;;14.70;7.20;;;;;;;42.97;30.33;101047.13;6158723;23;20495;-77
2022/09/17 13:18:32;;;;;;;16.33;7.63;;;;;;;43.54;29.07;101044.44;6157936;23;20385;-72
2022/09/17 13:21:13;;;;;;;13.70;7.43;;;;;;;43.65;29.65;101026.47;6157449;23;20423;-70
2022/09/17 13:23:47;;;;;;;17.93;6.63;;;;;;;43.37;29.86;101026.31;6185809;23;20420;-73
2022/09/17 13:26:18;;;;;;;19.33;7.10;;;;;;;43.35;29.56;101023.13;6158906;23;20407;-75
2022/09/17 13:28:46;;;;;;;12.90;7.37;;;;;;;43.28;29.88;101019.34;6159117;23;20376;-72
2022/09/17 13:31:18;;;;;;;15.13;8.33;;;;;;;43.31;29.75;101030.41;6159059;23;20732;-72
2022/09/17 13:33:54;;;;;;;18.93;6.90;;;;;;;42.94;30.10;101010.41;6158476;23;20384;-74
2022/09/17 13:36:37;;;;;;;22.73;8.47;;;;;;;43.52;29.51;101010.41;6158491;23;20391;-73
2022/09/17 13:39:05;;;;;;;16.80;7.30;;;;;;;43.31;29.88;101007.75;6159129;23;20376;-73
2022/09/17 13:41:35;;;;;;;14.40;7.27;;;;;;;43.81;28.93;100993.78;6151102;23;20453;-74
2022/09/17 13:44:04;;;;;;;14.40;6.57;;;;;;;43.81;29.08;100993.78;6100296;23;20386;-72
2022/09/17 13:46:32;;;;;;;16.30;7.90;;;;;;;43.76;29.10;100991.25;6100351;23;20396;-75
2022/09/17 13:49:02;;;;;;;14.70;8.27;;;;;;;43.55;29.32;100980.47;6099611;23;20386;-73
2022/09/17 13:51:31;;;;;;;15.63;8.40;;;;;;;42.88;30.38;100985.25;6100183;23;20386;-73
2022/09/17 13:54:09;;;;;;;16.50;8.80;;;;;;;43.57;29.55;100980.91;6099919;23;20394;-73
2022/09/17 13:56:37;;;;;;;14.07;7.93;;;;;;;44.07;29.19;100970.72;6099818;23;20475;-77
2022/09/17 13:59:25;;;;;;;12.80;6.23;;;;;;;43.67;29.09;100969.53;6099717;23;20882;-74
2022/09/17 14:02:00;;;;;;;11.27;6.23;;;;;;;43.52;28.96;100972.16;6099688;23;20426;-74
2022/09/17 14:04:46;;;;;;;13.17;7.00;;;;;;;43.17;29.68;100962.47;6099186;23;20413;-73
2022/09/17 14:07:25;;;;;;;11.33;7.07;;;;;;;43.42;29.50;100955.13;6099945;23;20390;-73
2022/09/17 14:10:21;;;;;;;17.43;7.07;;;;;;;43.11;30.27;100958.38;6099939;23;20410;-74
2022/09/17 14:12:54;;;;;;;17.33;8.63;;;;;;;43.74;29.54;100955.28;6113842;23;20473;-73
2022/09/17 14:15:35;;;;;;;18.50;8.20;;;;;;;44.02;28.73;100946.38;6100210;23;20394;-76
2022/09/17 14:18:21;;;;;;;15.83;7.17;;;;;;;43.57;29.01;100959.06;6099613;23;20843;-75
2022/09/17 14:20:48;;;;;;;16.13;7.80;;;;;;;44.05;29.08;100954.66;6099692;23;20434;-75
2022/09/17 14:23:14;;;;;;;13.37;7.83;;;;;;;44.22;28.54;100950.88;6099925;23;20786;-74
2022/09/17 14:25:48;;;;;;;12.73;5.67;;;;;;;44.27;28.32;100947.09;6099913;23;20428;-74
2022/09/17 14:28:22;;;;;;;14.50;7.17;;;;;;;44.11;28.25;100952.47;6099629;23;20385;-74
2022/09/17 14:30:48;;;;;;;16.93;7.37;;;;;;;44.04;28.30;100941.34;6100004;23;20382;-74
2022/09/17 14:33:29;;;;;;;21.40;8.07;;;;;;;44.00;28.61;100930.31;6099077;23;20402;-74
2022/09/17 14:36:18;;;;;;;12.50;6.27;;;;;;;43.85;28.68;100937.31;6099709;23;20921;-75
2022/09/17 14:38:52;;;;;;;16.53;8.27;;;;;;;43.57;29.12;100923.56;6099797;23;20740;-75
2022/09/17 14:41:38;;;;;;;11.63;7.50;;;;;;;43.40;29.47;100921.91;6107252;23;20926;-76
2022/09/17 14:44:17;;;;;;;17.90;7.60;;;;;;;43.20;30.00;100920.03;6124119;23;20389;-75
2022/09/17 14:46:43;;;;;;;21.53;7.17;;;;;;;43.36;29.65;100923.69;6124171;23;20468;-74
2022/09/17 14:49:23;;;;;;;26.17;9.30;;;;;;;43.18;29.65;100916.88;6122770;23;20419;-73
2022/09/17 14:51:57;;;;;;;17.57;8.20;;;;;;;44.02;28.84;100917.09;6124175;23;20173;-71
2022/09/17 14:54:31;;;;;;;15.83;7.30;;;;;;;44.29;28.20;100912.78;6124125;23;20853;-71
2022/09/17 14:57:18;;;;;;;11.77;7.37;;;;;;;44.47;28.16;100910.53;6124048;23;20505;-72
2022/09/17 14:59:57;;;;;;;10.90;6.20;;;;;;;44.14;28.32;100906.13;6124239;23;20485;-72
2022/09/17 15:02:36;;;;;;;17.17;7.03;;;;;;;44.27;28.66;100901.41;6124296;23;20449;-74
2022/09/17 15:05:17;;;;;;;17.60;6.50;;;;;;;44.62;28.22;100903.50;6125845;23;20413;-74
2022/09/17 15:07:44;;;;;;;17.23;9.27;;;;;;;44.13;28.64;100895.50;6124299;23;20393;-72
2022/09/17 15:10:21;;;;;;;14.33;8.30;;;;;;;44.43;28.34;100896.75;6099812;23;20408;-73
2022/09/17 15:12:49;;;;;;;18.27;8.43;;;;;;;44.20;28.74;100896.56;6126114;23;20362;-72
2022/09/17 15:15:25;;;;;;;18.83;8.73;;;;;;;44.30;28.53;100903.44;6124403;23;20890;-73
2022/09/17 15:17:52;;;;;;;22.80;8.40;;;;;;;44.18;28.24;100896.09;6099925;23;20381;-72
2022/09/17 15:20:30;;;;;;;16.10;9.33;;;;;;;43.79;28.34;100884.03;6123920;23;20425;-71
2022/09/17 15:23:14;;;;;;;14.60;8.20;;;;;;;44.24;28.09;100885.69;6124123;23;20405;-71
2022/09/17 15:25:41;;;;;;;22.77;11.03;;;;;;;44.61;27.10;100888.22;6123932;23;20410;-71
2022/09/17 15:28:38;;;;;;;14.13;8.30;;;;;;;44.30;27.64;100878.03;6124056;23;20790;-71
2022/09/17 15:31:05;;;;;;;30.63;8.13;;;;;;;44.35;27.84;100880.50;6123726;23;20437;-70
2022/09/17 15:33:32;;;;;;;15.83;8.73;;;;;;;44.89;27.48;100879.94;6123901;23;20386;-72
2022/09/17 15:36:26;;;;;;;14.17;7.57;;;;;;;44.24;27.91;100891.94;6099641;23;20441;-71
2022/09/17 15:38:53;;;;;;;18.37;8.27;;;;;;;44.80;27.23;100882.84;6125327;23;20353;-70
2022/09/17 15:41:34;;;;;;;19.13;7.10;;;;;;;45.07;27.30;100881.19;6123757;23;20437;-71
2022/09/17 15:44:23;;;;;;;10.57;7.23;;;;;;;45.28;27.32;100870.69;6123872;23;20489;-71
2022/09/17 15:46:50;;;;;;;20.27;7.47;;;;;;;45.29;26.51;100869.53;6100047;23;20378;-71
2022/09/17 15:49:30;;;;;;;19.93;9.93;;;;;;;45.47;26.67;100872.69;6123859;23;20738;-70
2022/09/17 15:52:27;;;;;;;15.93;8.00;;;;;;;46.02;26.34;100873.44;6123909;23;20386;-71
2022/09/17 15:54:53;;;;;;;27.03;9.63;;;;;;;46.04;26.05;100878.53;6123966;23;20374;-71
2022/09/17 15:57:21;;;;;;;19.67;8.17;;;;;;;45.85;26.43;100873.88;6075861;23;20425;-71
2022/09/17 15:59:48;;;;;;;14.53;8.63;;;;;;;45.69;26.29;100881.38;6123779;23;20458;-73
2022/09/17 16:02:34;;;;;;;16.43;8.47;;;;;;;45.67;26.79;100878.19;6099863;23;20395;-71
2022/09/17 16:05:12;;;;;;;18.03;8.20;;;;;;;45.68;26.38;100877.84;6099595;23;20743;-71
2022/09/17 16:07:39;;;;;;;12.83;7.30;;;;;;;45.59;26.91;100877.25;6123984;23;20444;-71
2022/09/17 16:10:07;;;;;;;15.07;7.47;;;;;;;45.40;26.80;100875.28;6123806;23;20406;-71